Time;durP1;ratioP1;P1;durP2;ratioP2;P2;SDS_P1;SDS_P2;PMS_P1;PMS_P2;Temp;Humidity;BMP_temperature;BMP_pressure;BME280_temperature;BME280_humidity;BME280_pressure;Samples;Min_cycle;Max_cycle;Signal;HPM_P1;HPM_P2
2021/07/05 00:02:10;;;;;;;;;;;14.70;99.90;;;;;;5074834;28;19935;-74
2021/07/05 00:04:38;;;;;;;;;;;14.70;99.90;;;;;;5075122;28;19925;-74
2021/07/05 00:07:05;;;;;;;;;;;14.70;99.90;;;;;;5074584;28;19929;-73
2021/07/05 00:09:31;;;;;;;;;;;14.70;99.90;;;;;;5074843;28;19924;-74
2021/07/05 00:11:58;;;;;;;;;;;14.70;99.90;;;;;;5074785;28;19924;-75
2021/07/05 00:14:26;;;;;;;;;;;14.70;99.90;;;;;;5074744;28;19924;-75
2021/07/05 00:16:53;;;;;;;;;;;14.70;99.90;;;;;;5075021;28;19935;-75
2021/07/05 00:19:20;;;;;;;;;;;14.70;99.90;;;;;;5074837;28;19935;-75
2021/07/05 00:21:47;;;;;;;;;;;14.70;99.90;;;;;;5074792;28;19931;-73
2021/07/05 00:24:14;;;;;;;;;;;14.70;99.90;;;;;;5074611;28;19929;-75
2021/07/05 00:26:41;;;;;;;;;;;14.70;99.90;;;;;;5074765;28;19924;-75
2021/07/05 00:29:07;;;;;;;;;;;14.70;99.90;;;;;;5074919;28;19951;-70
2021/07/05 00:31:36;;;;;;;;;;;14.70;99.90;;;;;;5074619;28;20291;-73
2021/07/05 00:34:02;;;;;;;;;;;14.70;99.90;;;;;;5074766;28;19924;-74
2021/07/05 00:36:29;;;;;;;;;;;14.60;99.90;;;;;;5074738;28;19930;-73
2021/07/05 00:38:56;;;;;;;;;;;14.60;99.90;;;;;;5074577;28;20279;-74
2021/07/05 00:41:23;;;;;;;;;;;14.70;99.90;;;;;;5074427;28;19928;-73
2021/07/05 00:43:50;;;;;;;;;;;14.60;99.90;;;;;;5074504;28;19932;-74
2021/07/05 00:46:17;;;;;;;;;;;14.60;99.90;;;;;;5074713;28;19925;-75
2021/07/05 00:48:45;;;;;;;;;;;14.60;99.90;;;;;;5074532;28;19928;-72
2021/07/05 00:51:12;;;;;;;;;;;14.60;99.90;;;;;;5074638;28;19931;-75
2021/07/05 00:53:38;;;;;;;;;;;14.60;99.90;;;;;;5077589;28;19935;-74
2021/07/05 00:56:06;;;;;;;;;;;14.60;99.90;;;;;;5078049;28;19924;-74
2021/07/05 00:58:33;;;;;;;;;;;14.60;99.90;;;;;;5078149;28;19932;-74
2021/07/05 01:00:59;;;;;;;;;;;14.60;99.90;;;;;;5078053;28;19928;-75
2021/07/05 01:03:26;;;;;;;;;;;14.60;99.90;;;;;;5077999;28;20272;-74
2021/07/05 01:05:55;;;;;;;;;;;14.60;99.90;;;;;;5077781;28;19928;-74
2021/07/05 01:08:21;;;;;;;;;;;14.60;99.90;;;;;;5077660;28;20371;-74
2021/07/05 01:10:48;;;;;;;;;;;14.60;99.90;;;;;;5077790;28;19935;-74
2021/07/05 01:13:15;;;;;;;;;;;14.60;99.90;;;;;;5077687;28;19924;-74
2021/07/05 01:15:42;;;;;;;;;;;14.60;99.90;;;;;;5077963;28;19925;-73
2021/07/05 01:18:09;;;;;;;;;;;14.60;99.90;;;;;;5077844;28;19935;-74
2021/07/05 01:20:36;;;;;;;;;;;14.60;99.90;;;;;;5077622;28;20272;-74
2021/07/05 01:23:05;;;;;;;;;;;14.60;99.90;;;;;;5077752;28;19924;-74
2021/07/05 01:25:32;;;;;;;;;;;14.60;99.90;;;;;;5077720;28;20269;-74
2021/07/05 01:27:59;;;;;;;;;;;14.60;99.90;;;;;;5077388;28;19925;-74
2021/07/05 01:30:26;;;;;;;;;;;14.50;99.90;;;;;;5077646;28;19932;-74
2021/07/05 01:32:55;;;;;;;;;;;14.60;99.90;;;;;;5077645;28;19925;-74
2021/07/05 01:35:22;;;;;;;;;;;14.60;99.90;;;;;;5077394;28;19924;-74
2021/07/05 01:37:49;;;;;;;;;;;14.60;99.90;;;;;;5077547;28;19950;-74
2021/07/05 01:40:18;;;;;;;;;;;14.60;99.90;;;;;;5077556;28;20014;-74
2021/07/05 01:42:49;;;;;;;;;;;14.60;99.90;;;;;;5077250;28;20311;-74
2021/07/05 01:45:16;;;;;;;;;;;14.60;99.90;;;;;;5077177;28;20395;-74
2021/07/05 01:47:42;;;;;;;;;;;14.60;99.90;;;;;;5077280;28;19931;-73
2021/07/05 01:50:09;;;;;;;;;;;14.60;99.90;;;;;;5077142;28;20268;-74
2021/07/05 01:52:36;;;;;;;;;;;14.60;99.90;;;;;;5077010;28;19931;-73
2021/07/05 01:55:03;;;;;;;;;;;14.50;99.90;;;;;;5076960;28;20363;-74
2021/07/05 01:57:33;;;;;;;;;;;14.60;99.90;;;;;;5077158;28;19931;-73
2021/07/05 02:00:00;;;;;;;;;;;14.50;99.90;;;;;;5077171;28;19925;-74
2021/07/05 02:02:27;;;;;;;;;;;14.50;99.90;;;;;;5076930;28;19931;-74
2021/07/05 02:04:54;;;;;;;;;;;14.50;99.90;;;;;;5075812;28;20482;-74
2021/07/05 02:07:21;;;;;;;;;;;14.50;99.90;;;;;;5076807;28;20378;-74
2021/07/05 02:09:48;;;;;;;;;;;14.50;99.90;;;;;;5076686;28;19934;-74
2021/07/05 02:12:15;;;;;;;;;;;14.50;99.90;;;;;;5076575;28;19929;-74
2021/07/05 02:14:43;;;;;;;;;;;14.50;99.90;;;;;;5076787;28;19935;-74
2021/07/05 02:17:11;;;;;;;;;;;14.50;99.90;;;;;;5076566;28;19931;-73
2021/07/05 02:19:37;;;;;;;;;;;14.50;99.90;;;;;;5076467;28;20019;-74
2021/07/05 02:22:04;;;;;;;;;;;14.50;99.90;;;;;;5076571;28;19924;-74
2021/07/05 02:24:31;;;;;;;;;;;14.50;99.90;;;;;;5076364;28;19925;-74
2021/07/05 02:26:58;;;;;;;;;;;14.50;99.90;;;;;;5076316;28;19924;-74
2021/07/05 02:29:25;;;;;;;;;;;14.50;99.90;;;;;;5076642;28;19929;-74
2021/07/05 02:31:53;;;;;;;;;;;14.50;99.90;;;;;;5076288;28;19934;-74
2021/07/05 02:34:20;;;;;;;;;;;14.50;99.90;;;;;;5076116;28;19935;-74
2021/07/05 02:36:47;;;;;;;;;;;14.50;99.90;;;;;;5076480;28;19935;-74
2021/07/05 02:39:13;;;;;;;;;;;14.50;99.90;;;;;;5076124;28;19924;-74
2021/07/05 02:41:40;;;;;;;;;;;14.40;99.90;;;;;;5076204;28;19924;-74
2021/07/05 02:44:07;;;;;;;;;;;14.40;99.90;;;;;;5076044;28;19951;-74
2021/07/05 02:46:34;;;;;;;;;;;14.40;99.90;;;;;;5076046;28;19928;-74
2021/07/05 02:49:02;;;;;;;;;;;14.40;99.90;;;;;;5075891;28;19925;-74
2021/07/05 02:51:29;;;;;;;;;;;14.40;99.90;;;;;;5075870;28;19924;-73
2021/07/05 02:53:56;;;;;;;;;;;14.40;99.90;;;;;;5076245;28;19928;-74
2021/07/05 02:56:23;;;;;;;;;;;14.40;99.90;;;;;;5075878;28;19935;-74
2021/07/05 02:58:50;;;;;;;;;;;14.40;99.90;;;;;;5075856;28;19989;-75
2021/07/05 03:01:17;;;;;;;;;;;14.40;99.90;;;;;;5075723;28;19934;-74
2021/07/05 03:03:44;;;;;;;;;;;14.40;99.90;;;;;;5075542;28;19925;-74
2021/07/05 03:06:13;;;;;;;;;;;14.30;99.90;;;;;;5075724;28;19946;-74
2021/07/05 03:08:39;;;;;;;;;;;14.40;99.90;;;;;;5075966;28;19924;-74
2021/07/05 03:11:08;;;;;;;;;;;14.30;99.90;;;;;;5075407;28;20268;-74
2021/07/05 03:13:35;;;;;;;;;;;14.30;99.90;;;;;;5075463;28;19932;-74
2021/07/05 03:16:02;;;;;;;;;;;14.20;99.90;;;;;;5075251;28;19924;-74
2021/07/05 03:18:29;;;;;;;;;;;14.20;99.90;;;;;;5075322;28;19928;-74
2021/07/05 03:20:55;;;;;;;;;;;14.20;99.90;;;;;;5075469;28;19928;-74
2021/07/05 03:23:25;;;;;;;;;;;14.20;99.90;;;;;;5075456;28;19924;-74
2021/07/05 03:25:52;;;;;;;;;;;14.20;99.90;;;;;;5075620;28;19925;-74
2021/07/05 03:28:19;;;;;;;;;;;14.30;99.90;;;;;;5075583;28;19925;-74
2021/07/05 03:30:46;;;;;;;;;;;14.30;99.90;;;;;;5075113;28;20019;-74
2021/07/05 03:33:13;;;;;;;;;;;14.20;99.90;;;;;;5075290;28;19924;-74
2021/07/05 03:35:40;;;;;;;;;;;14.20;99.90;;;;;;5075673;28;19924;-74
2021/07/05 03:38:07;;;;;;;;;;;14.20;99.90;;;;;;5075348;28;19936;-74
2021/07/05 03:40:36;;;;;;;;;;;14.20;99.90;;;;;;5075057;28;19928;-74
2021/07/05 03:43:03;;;;;;;;;;;14.20;99.90;;;;;;5075044;28;19925;-74
2021/07/05 03:45:30;;;;;;;;;;;14.20;99.90;;;;;;5075127;28;19925;-74
2021/07/05 03:47:57;;;;;;;;;;;14.20;99.90;;;;;;5075295;28;19925;-74
2021/07/05 03:50:24;;;;;;;;;;;14.20;99.90;;;;;;5075219;28;19934;-74
2021/07/05 03:52:51;;;;;;;;;;;14.20;99.90;;;;;;5075220;28;19924;-74
2021/07/05 03:55:18;;;;;;;;;;;14.20;99.90;;;;;;5074931;28;19924;-74
2021/07/05 03:57:46;;;;;;;;;;;14.20;99.90;;;;;;5075427;28;19924;-74
2021/07/05 04:00:15;;;;;;;;;;;14.20;99.90;;;;;;5075240;28;19924;-74
2021/07/05 04:02:42;;;;;;;;;;;14.20;99.90;;;;;;5075062;28;19971;-74
2021/07/05 04:05:09;;;;;;;;;;;14.10;99.90;;;;;;5074889;28;20341;-74
2021/07/05 04:07:36;;;;;;;;;;;14.10;99.90;;;;;;5074871;28;19924;-74
2021/07/05 04:10:03;;;;;;;;;;;14.10;99.90;;;;;;5075138;28;19967;-74
2021/07/05 04:12:30;;;;;;;;;;;14.00;99.90;;;;;;5074701;28;20348;-74
2021/07/05 04:14:58;;;;;;;;;;;14.00;99.90;;;;;;5074930;28;19925;-73
2021/07/05 04:17:25;;;;;;;;;;;14.00;99.90;;;;;;5074999;28;19925;-74
2021/07/05 04:19:52;;;;;;;;;;;14.00;99.90;;;;;;5074928;28;20340;-73
2021/07/05 04:22:19;;;;;;;;;;;14.00;99.90;;;;;;5074623;28;19924;-73
2021/07/05 04:24:46;;;;;;;;;;;14.10;99.90;;;;;;5074686;28;19935;-73
2021/07/05 04:27:13;;;;;;;;;;;14.00;99.90;;;;;;5075939;28;19924;-73
2021/07/05 04:29:40;;;;;;;;;;;14.00;99.90;;;;;;5078564;28;20362;-73
2021/07/05 04:32:08;;;;;;;;;;;14.00;99.90;;;;;;5078497;28;20408;-73
2021/07/05 04:34:35;;;;;;;;;;;14.00;99.90;;;;;;5078474;28;19924;-73
2021/07/05 04:37:02;;;;;;;;;;;14.00;99.90;;;;;;5078937;28;19935;-73
2021/07/05 04:39:29;;;;;;;;;;;14.10;99.90;;;;;;5078354;28;19934;-73
2021/07/05 04:41:56;;;;;;;;;;;14.00;99.90;;;;;;5078173;28;19931;-73
2021/07/05 04:44:22;;;;;;;;;;;14.10;99.90;;;;;;5078453;28;19925;-73
2021/07/05 04:46:50;;;;;;;;;;;14.10;99.90;;;;;;5078431;28;19931;-73
2021/07/05 04:49:19;;;;;;;;;;;14.10;99.90;;;;;;5078565;28;19924;-73
2021/07/05 04:51:45;;;;;;;;;;;14.10;99.90;;;;;;5078282;28;19925;-73
2021/07/05 04:54:12;;;;;;;;;;;14.00;99.90;;;;;;5078372;28;20277;-73
2021/07/05 04:56:39;;;;;;;;;;;14.10;99.90;;;;;;5078059;28;19924;-73
2021/07/05 04:59:06;;;;;;;;;;;14.10;99.90;;;;;;5078038;28;19935;-73
2021/07/05 05:01:33;;;;;;;;;;;14.10;99.90;;;;;;5077808;28;19924;-73
2021/07/05 05:04:00;;;;;;;;;;;14.10;99.90;;;;;;5077865;28;20364;-73
2021/07/05 05:06:28;;;;;;;;;;;14.10;99.90;;;;;;5077876;28;20007;-73
2021/07/05 05:08:55;;;;;;;;;;;14.20;99.90;;;;;;5077727;28;19934;-73
2021/07/05 05:11:22;;;;;;;;;;;14.20;99.90;;;;;;5077844;28;20438;-73
2021/07/05 05:13:49;;;;;;;;;;;14.20;99.90;;;;;;5077721;28;20390;-73
2021/07/05 05:16:16;;;;;;;;;;;14.20;99.90;;;;;;5077907;28;19931;-73
2021/07/05 05:18:43;;;;;;;;;;;14.20;99.90;;;;;;5078025;28;19925;-73
2021/07/05 05:21:11;;;;;;;;;;;14.20;99.90;;;;;;5077739;28;19924;-73
2021/07/05 05:23:39;;;;;;;;;;;14.20;99.90;;;;;;5077779;28;19982;-73
2021/07/05 05:26:07;;;;;;;;;;;14.20;99.90;;;;;;5077784;28;19925;-73
2021/07/05 05:28:34;;;;;;;;;;;14.20;99.90;;;;;;5077714;28;19929;-73
2021/07/05 05:31:00;;;;;;;;;;;14.20;99.90;;;;;;5077665;28;20302;-73
2021/07/05 05:33:27;;;;;;;;;;;14.20;99.90;;;;;;5077543;28;19925;-73
2021/07/05 05:35:54;;;;;;;;;;;14.30;99.90;;;;;;5077343;28;19925;-73
2021/07/05 05:38:21;;;;;;;;;;;14.20;99.90;;;;;;5077173;28;20267;-73
2021/07/05 05:40:49;;;;;;;;;;;14.30;99.90;;;;;;5077259;28;19938;-73
2021/07/05 05:43:16;;;;;;;;;;;14.20;99.90;;;;;;5077544;28;19925;-73
2021/07/05 05:45:43;;;;;;;;;;;14.30;99.90;;;;;;5077190;28;20455;-73
2021/07/05 05:48:10;;;;;;;;;;;14.30;99.90;;;;;;5077150;28;19924;-74
2021/07/05 05:50:36;;;;;;;;;;;14.30;99.90;;;;;;5077076;28;19924;-74
2021/07/05 05:53:03;;;;;;;;;;;14.30;99.90;;;;;;5077404;28;19929;-73
2021/07/05 05:55:30;;;;;;;;;;;14.20;99.90;;;;;;5077311;28;19936;-74
2021/07/05 05:57:58;;;;;;;;;;;14.30;99.90;;;;;;5077194;28;20356;-73
2021/07/05 06:00:26;;;;;;;;;;;14.30;99.90;;;;;;5077148;28;19925;-73
2021/07/05 06:02:53;;;;;;;;;;;14.30;99.90;;;;;;5076724;28;19951;-73
2021/07/05 06:05:21;;;;;;;;;;;14.30;99.90;;;;;;5076734;28;19925;-74
2021/07/05 06:07:49;;;;;;;;;;;14.30;99.90;;;;;;5076609;28;19950;-73
2021/07/05 06:10:16;;;;;;;;;;;14.20;99.90;;;;;;5076873;28;19967;-73
2021/07/05 06:12:43;;;;;;;;;;;14.20;99.90;;;;;;5076632;28;19935;-74
2021/07/05 06:15:12;;;;;;;;;;;14.20;99.90;;;;;;5076730;28;19935;-74
2021/07/05 06:17:39;;;;;;;;;;;14.30;99.90;;;;;;5076559;28;20379;-73
2021/07/05 06:20:06;;;;;;;;;;;14.30;99.90;;;;;;5076409;28;20002;-73
2021/07/05 06:22:39;;;;;;;;;;;14.40;99.90;;;;;;5076286;28;19934;-73
2021/07/05 06:25:07;;;;;;;;;;;14.40;99.90;;;;;;5076482;28;19932;-73
2021/07/05 06:27:33;;;;;;;;;;;14.30;99.90;;;;;;5076369;28;19928;-74
2021/07/05 06:30:00;;;;;;;;;;;14.40;99.90;;;;;;5076420;28;19925;-74
2021/07/05 06:32:28;;;;;;;;;;;14.30;99.90;;;;;;5076424;28;19934;-73
2021/07/05 06:34:55;;;;;;;;;;;14.40;99.90;;;;;;5076166;28;19924;-73
2021/07/05 06:37:22;;;;;;;;;;;14.40;99.90;;;;;;5076400;28;19931;-73
2021/07/05 06:39:49;;;;;;;;;;;14.50;99.90;;;;;;5076321;28;19928;-74
2021/07/05 06:42:16;;;;;;;;;;;14.50;99.90;;;;;;5076090;28;20351;-73
2021/07/05 06:44:43;;;;;;;;;;;14.50;99.90;;;;;;5076118;28;19924;-73
2021/07/05 06:47:09;;;;;;;;;;;14.50;99.90;;;;;;5075923;28;20268;-73
2021/07/05 06:49:38;;;;;;;;;;;14.60;99.90;;;;;;5075424;28;19924;-73
2021/07/05 06:52:05;;;;;;;;;;;14.60;99.90;;;;;;5076046;28;20294;-73
2021/07/05 06:54:32;;;;;;;;;;;14.60;99.90;;;;;;5075960;28;19924;-73
2021/07/05 06:56:58;;;;;;;;;;;14.70;99.90;;;;;;5075832;28;19935;-73
2021/07/05 06:59:25;;;;;;;;;;;14.70;99.90;;;;;;5075717;28;19925;-73
2021/07/05 07:01:52;;;;;;;;;;;14.70;99.90;;;;;;5075572;28;19934;-73
2021/07/05 07:04:19;;;;;;;;;;;14.80;99.90;;;;;;5075851;28;19931;-73
2021/07/05 07:06:49;;;;;;;;;;;14.80;99.90;;;;;;5075548;28;19940;-73
2021/07/05 07:09:16;;;;;;;;;;;14.80;99.90;;;;;;5075874;28;19954;-73
2021/07/05 07:11:43;;;;;;;;;;;14.80;99.90;;;;;;5075586;28;19925;-73
2021/07/05 07:14:10;;;;;;;;;;;14.80;99.90;;;;;;5075527;28;20259;-73
2021/07/05 07:16:42;;;;;;;;;;;14.90;99.90;;;;;;5075423;28;19932;-73
2021/07/05 07:19:16;;;;;;;;;;;14.90;99.90;;;;;;5075422;28;19928;-73
2021/07/05 07:21:44;;;;;;;;;;;15.00;99.90;;;;;;5075619;28;19935;-73
2021/07/05 07:24:12;;;;;;;;;;;15.10;99.90;;;;;;5075267;28;19924;-73
2021/07/05 07:26:39;;;;;;;;;;;15.30;99.90;;;;;;5075606;28;19928;-71
2021/07/05 07:29:06;;;;;;;;;;;15.40;99.90;;;;;;5075415;28;19932;-73
2021/07/05 07:31:32;;;;;;;;;;;15.40;99.90;;;;;;5075158;28;19924;-72
2021/07/05 07:33:59;;;;;;;;;;;15.30;99.90;;;;;;5075228;28;19928;-73
2021/07/05 07:36:26;;;;;;;;;;;15.30;99.90;;;;;;5075351;28;19931;-73
2021/07/05 07:38:57;;;;;;;;;;;15.30;99.90;;;;;;5075163;28;20337;-73
2021/07/05 07:41:29;;;;;;;;;;;15.40;99.90;;;;;;5074688;28;20306;-73
2021/07/05 07:43:56;;;;;;;;;;;15.40;99.90;;;;;;5075171;28;19924;-73
2021/07/05 07:46:23;;;;;;;;;;;15.40;99.90;;;;;;5075243;28;19925;-73
2021/07/05 07:48:50;;;;;;;;;;;15.40;99.90;;;;;;5075168;28;19924;-73
2021/07/05 07:51:17;;;;;;;;;;;15.50;99.90;;;;;;5075041;28;20250;-73
2021/07/05 07:53:44;;;;;;;;;;;15.60;99.90;;;;;;5074965;28;20375;-73
2021/07/05 07:56:10;;;;;;;;;;;15.70;99.90;;;;;;5074849;28;19925;-72
2021/07/05 07:58:39;;;;;;;;;;;16.10;99.90;;;;;;5075100;28;19932;-73
2021/07/05 08:01:07;;;;;;;;;;;17.10;99.90;;;;;;5074981;28;20256;-71
2021/07/05 08:03:34;;;;;;;;;;;18.80;99.90;;;;;;5077505;28;20508;-72
2021/07/05 08:06:01;;;;;;;;;;;21.30;99.90;;;;;;5079242;28;19920;-73
2021/07/05 08:08:28;;;;;;;;;;;23.80;99.90;;;;;;5078490;28;20894;-73
2021/07/05 08:10:55;;;;;;;2.03;1.05;;;26.00;99.90;;;;;;5077200;28;20401;-73
2021/07/05 08:13:22;;;;;;;1.65;0.57;;;27.40;99.90;;;;;;5078391;28;20452;-73
2021/07/05 08:15:52;;;;;;;1.85;0.93;;;28.10;99.90;;;;;;5078539;28;20075;-73
2021/07/05 08:18:19;;;;;;;2.20;0.70;;;28.60;93.80;;;;;;5078546;28;20048;-73
2021/07/05 08:20:47;;;;;;;1.58;0.93;;;28.10;99.90;;;;;;5078528;28;20049;-74
2021/07/05 08:23:14;;;;;;;6.65;1.17;;;27.60;99.90;;;;;;5078311;28;20044;-74
2021/07/05 08:25:41;;;;;;;3.00;1.10;;;26.80;99.90;;;;;;5078753;28;20064;-74
2021/07/05 08:28:08;;;;;;;1.83;1.17;;;25.80;99.90;;;;;;5078163;28;20377;-74
2021/07/05 08:30:36;;;;;;;2.45;1.35;;;24.40;99.90;;;;;;5078300;28;20048;-74
2021/07/05 08:33:04;;;;;;;3.22;2.00;;;23.10;99.90;;;;;;5078328;28;20045;-73
2021/07/05 08:35:31;;;;;;;2.55;1.63;;;21.80;99.90;;;;;;5078312;28;20062;-73
2021/07/05 08:37:58;;;;;;;3.42;2.50;;;20.80;99.90;;;;;;5078118;28;20045;-73
2021/07/05 08:40:25;;;;;;;4.60;2.45;;;20.00;99.90;;;;;;5078137;28;20055;-72
2021/07/05 08:42:54;;;;;;;3.58;2.38;;;19.30;99.90;;;;;;5077960;28;20071;-72
2021/07/05 08:45:21;;;;;;;3.88;1.95;;;18.80;99.90;;;;;;5077997;28;20055;-72
2021/07/05 08:47:50;;;;;;;2.80;1.88;;;18.30;99.90;;;;;;5077737;28;20052;-72
2021/07/05 08:50:19;;;;;;;2.00;1.23;;;18.10;99.90;;;;;;5077482;28;20425;-72
2021/07/05 08:52:46;;;;;;;;;;;17.60;99.90;;;;;;5078236;28;20044;-74
2021/07/05 08:55:13;;;;;;;;;;;17.10;99.90;;;;;;5077973;28;19994;-73
2021/07/05 08:57:41;;;;;;;;;;;16.50;99.90;;;;;;5078299;28;19926;-73
2021/07/05 09:00:09;;;;;;;;;;;16.10;99.90;;;;;;5078062;28;19974;-73
2021/07/05 09:02:36;;;;;;;;;;;15.70;99.90;;;;;;5078178;28;19920;-73
2021/07/05 09:05:03;;;;;;;;;;;15.40;99.90;;;;;;5078072;28;19920;-73
2021/07/05 09:07:31;;;;;;;;;;;15.10;99.90;;;;;;5077867;28;19934;-74
2021/07/05 09:09:58;;;;;;;;;;;15.00;99.90;;;;;;5077971;28;19920;-74
2021/07/05 09:12:25;;;;;;;;;;;14.90;99.90;;;;;;5077882;28;19920;-74
2021/07/05 09:15:05;;;;;;;;;;;14.80;99.90;;;;;;5077441;28;20329;-74
2021/07/05 09:17:32;;;;;;;;;;;14.80;99.90;;;;;;5077666;28;19920;-74
2021/07/05 09:19:59;;;;;;;;;;;14.80;99.90;;;;;;5077642;28;19924;-74
2021/07/05 09:22:26;;;;;;;;;;;14.80;99.90;;;;;;5078077;28;19920;-74
2021/07/05 09:24:57;;;;;;;;;;;14.80;99.90;;;;;;5077635;28;19946;-74
2021/07/05 09:27:25;;;;;;;;;;;14.80;99.90;;;;;;5077756;28;20033;-74
2021/07/05 09:29:52;;;;;;;;;;;14.80;99.90;;;;;;5077502;28;20289;-74
2021/07/05 09:32:23;;;;;;;;;;;14.80;99.90;;;;;;5077348;28;19924;-74
2021/07/05 09:34:50;;;;;;;;;;;14.80;99.90;;;;;;5077569;28;19931;-74
2021/07/05 09:37:20;;;;;;;;;;;14.80;99.90;;;;;;5077561;28;19920;-74
2021/07/05 09:40:05;;;;;;;;;;;14.80;99.90;;;;;;5077494;28;19971;-74
2021/07/05 09:42:34;;;;;;;;;;;14.90;99.90;;;;;;5077818;28;20312;-74
2021/07/05 09:45:01;;;;;;;;;;;14.90;99.90;;;;;;5077573;28;19921;-74
2021/07/05 09:47:28;;;;;;;;;;;15.00;99.90;;;;;;5077145;28;19927;-74
2021/07/05 09:49:55;;;;;;;;;;;15.10;99.90;;;;;;5076948;28;19926;-74
2021/07/05 09:52:24;;;;;;;;;;;15.20;99.90;;;;;;5077568;28;20318;-74
2021/07/05 09:54:52;;;;;;;;;;;15.30;99.90;;;;;;5076934;28;19921;-74
2021/07/05 09:57:28;;;;;;;;;;;15.40;99.90;;;;;;5076985;28;19925;-74
2021/07/05 09:59:58;;;;;;;;;;;15.40;99.90;;;;;;5077248;28;19930;-74
2021/07/05 10:02:25;;;;;;;;;;;15.50;99.90;;;;;;5077440;28;20251;-74
2021/07/05 10:04:52;;;;;;;;;;;15.60;99.90;;;;;;5076795;28;19921;-73
2021/07/05 10:07:19;;;;;;;;;;;15.60;99.90;;;;;;5076757;28;19938;-73
2021/07/05 10:09:46;;;;;;;;;;;15.60;99.90;;;;;;5076815;28;20251;-73
2021/07/05 10:12:20;;;;;;;;;;;15.70;99.90;;;;;;5076501;28;19931;-73
2021/07/05 10:14:58;;;;;;;;;;;15.80;99.90;;;;;;5076713;28;19947;-73
2021/07/05 10:17:25;;;;;;;;;;;15.80;99.90;;;;;;5076580;28;19920;-73
2021/07/05 10:19:52;;;;;;;;;;;15.60;99.90;;;;;;5076556;28;19969;-73
2021/07/05 10:22:19;;;;;;;;;;;15.40;99.90;;;;;;5076589;28;20249;-73
2021/07/05 10:24:46;;;;;;;;;;;15.20;99.90;;;;;;5075525;28;19920;-73
2021/07/05 10:27:13;;;;;;;;;;;15.00;99.90;;;;;;5076334;28;19930;-73
2021/07/05 10:29:40;;;;;;;;;;;14.90;99.90;;;;;;5076387;28;20360;-73
2021/07/05 10:32:08;;;;;;;;;;;14.90;99.90;;;;;;5076698;28;19921;-73
2021/07/05 10:34:35;;;;;;;;;;;14.80;99.90;;;;;;5076468;28;19920;-73
2021/07/05 10:37:02;;;;;;;;;;;14.80;99.90;;;;;;5076359;28;19920;-73
2021/07/05 10:39:29;;;;;;;;;;;14.80;99.90;;;;;;5076066;28;20382;-73
2021/07/05 10:41:56;;;;;;;;;;;14.80;99.90;;;;;;5075858;28;19921;-73
2021/07/05 10:44:28;;;;;;;;;;;14.80;99.90;;;;;;5075953;28;19935;-72
2021/07/05 10:46:57;;;;;;;;;;;14.80;99.90;;;;;;5075385;28;19927;-73
2021/07/05 10:49:46;;;;;;;;;;;14.70;99.90;;;;;;5075954;28;20015;-74
2021/07/05 10:52:13;;;;;;;;;;;14.70;99.90;;;;;;5075911;28;19979;-73
2021/07/05 10:54:44;;;;;;;;;;;14.70;99.90;;;;;;5076414;28;19925;-73
2021/07/05 10:57:11;;;;;;;;;;;14.70;99.90;;;;;;5075948;28;20015;-73
2021/07/05 10:59:40;;;;;;;;;;;14.70;99.90;;;;;;5075751;28;19931;-73
2021/07/05 11:02:27;;;;;;;;;;;14.70;99.90;;;;;;5075655;28;19920;-74
2021/07/05 11:04:56;;;;;;;;;;;14.70;99.90;;;;;;5072213;28;20355;-73
2021/07/05 11:07:24;;;;;;;;;;;14.70;99.90;;;;;;5075568;28;19920;-73
2021/07/05 11:09:51;;;;;;;;;;;14.80;99.90;;;;;;5075654;28;19920;-74
2021/07/05 11:12:27;;;;;;;;;;;14.90;99.90;;;;;;5074785;28;20212;-73
2021/07/05 11:14:54;;;;;;;;;;;14.90;99.90;;;;;;5075361;28;20356;-73
2021/07/05 11:17:23;;;;;;;;;;;14.90;99.90;;;;;;5075407;28;19925;-73
2021/07/05 11:19:50;;;;;;;;;;;14.90;99.90;;;;;;5075465;28;20376;-73
2021/07/05 11:22:22;;;;;;;;;;;15.00;99.90;;;;;;5075473;28;19935;-73
2021/07/05 11:24:53;;;;;;;;;;;15.20;99.90;;;;;;5075413;28;20276;-73
2021/07/05 11:27:46;;;;;;;;;;;15.30;99.90;;;;;;5075247;28;20348;-73
2021/07/05 11:30:13;;;;;;;;;;;15.30;99.90;;;;;;5075289;28;20370;-73
2021/07/05 11:32:41;;;;;;;;;;;15.30;99.90;;;;;;5075366;28;19939;-73
2021/07/05 11:35:23;;;;;;;;;;;15.20;99.90;;;;;;5075479;28;20349;-73
2021/07/05 11:37:54;;;;;;;;;;;15.20;99.90;;;;;;5075532;28;20356;-73
2021/07/05 11:40:35;;;;;;;;;;;15.10;99.90;;;;;;5074937;28;20392;-73
2021/07/05 11:43:02;;;;;;;;;;;15.10;99.90;;;;;;5073992;28;19925;-72
2021/07/05 11:45:39;;;;;;;;;;;15.20;99.90;;;;;;5074830;28;19963;-73
2021/07/05 11:48:05;;;;;;;;;;;15.30;99.90;;;;;;5074673;28;20357;-72
2021/07/05 11:50:32;;;;;;;;;;;15.40;99.90;;;;;;5075197;28;19934;-72
2021/07/05 11:53:01;;;;;;;;;;;15.60;99.90;;;;;;5075028;28;19928;-72
2021/07/05 11:55:28;;;;;;;;;;;15.80;99.90;;;;;;5074987;28;19924;-72
2021/07/05 11:57:56;;;;;;;;;;;16.00;99.90;;;;;;5074942;28;20359;-72
2021/07/05 12:00:23;;;;;;;;;;;16.10;99.90;;;;;;5074821;28;19935;-72
2021/07/05 12:03:00;;;;;;;;;;;16.20;99.90;;;;;;5074931;28;19925;-72
2021/07/05 12:05:27;;;;;;;;;;;16.20;99.90;;;;;;5074805;28;20345;-72
2021/07/05 12:08:01;;;;;;;;;;;16.30;99.90;;;;;;5074730;28;20340;-72
2021/07/05 12:10:29;;;;;;;;;;;16.20;99.90;;;;;;5074875;28;20015;-72
2021/07/05 12:13:09;;;;;;;;;;;16.10;99.90;;;;;;5075160;28;19925;-72
2021/07/05 12:15:36;;;;;;;;;;;16.20;99.90;;;;;;5074863;28;20238;-72
2021/07/05 12:18:02;;;;;;;;;;;16.20;99.90;;;;;;5075031;28;19925;-72
2021/07/05 12:20:29;;;;;;;;;;;16.30;99.90;;;;;;5074654;28;19934;-72
2021/07/05 12:22:56;;;;;;;;;;;16.40;99.90;;;;;;5074636;28;19934;-71
2021/07/05 12:25:25;;;;;;;;;;;16.40;99.90;;;;;;5075087;28;19925;-72
2021/07/05 12:27:52;;;;;;;;;;;16.40;99.90;;;;;;5074537;28;20341;-72
2021/07/05 12:30:24;;;;;;;;;;;16.50;99.90;;;;;;5074675;28;19924;-72
2021/07/05 12:32:50;;;;;;;;;;;16.50;99.90;;;;;;5074799;28;19973;-72
2021/07/05 12:35:20;;;;;;;;;;;16.60;99.90;;;;;;5074559;28;20275;-75
2021/07/05 12:37:47;;;;;;;;;;;16.80;99.90;;;;;;5074557;28;19932;-76
2021/07/05 12:40:17;;;;;;;;;;;16.90;99.90;;;;;;5074816;28;19925;-74
2021/07/05 12:42:45;;;;;;;;;;;17.00;99.90;;;;;;5074634;28;19935;-73
2021/07/05 12:45:13;;;;;;;;;;;17.10;99.90;;;;;;5074746;28;20241;-72
2021/07/05 12:47:50;;;;;;;;;;;17.00;99.90;;;;;;5074817;28;20256;-71
2021/07/05 12:50:18;;;;;;;;;;;17.00;99.90;;;;;;5078194;28;19924;-72
2021/07/05 12:53:01;;;;;;;;;;;17.00;99.90;;;;;;5078121;28;20333;-72
2021/07/05 12:55:27;;;;;;;;;;;17.10;99.90;;;;;;5078303;28;19938;-72
2021/07/05 12:57:56;;;;;;;;;;;17.10;99.90;;;;;;5078436;28;20256;-72
2021/07/05 13:00:23;;;;;;;;;;;17.10;99.90;;;;;;5078489;28;19935;-71
2021/07/05 13:02:50;;;;;;;;;;;17.00;99.90;;;;;;5078007;28;19925;-73
2021/07/05 13:05:17;;;;;;;;;;;17.00;99.90;;;;;;5078076;28;19946;-72
2021/07/05 13:07:51;;;;;;;;;;;17.00;99.90;;;;;;5077985;28;19935;-70
2021/07/05 13:10:22;;;;;;;;;;;17.00;99.90;;;;;;5078170;28;20291;-71
2021/07/05 13:12:52;;;;;;;;;;;17.00;99.90;;;;;;5078073;28;19924;-72
2021/07/05 13:15:21;;;;;;;;;;;17.00;99.90;;;;;;5078162;28;19925;-72
2021/07/05 13:17:48;;;;;;;;;;;17.00;99.90;;;;;;5077658;28;19942;-72
2021/07/05 13:20:16;;;;;;;;;;;17.10;99.90;;;;;;5077638;28;19924;-72
2021/07/05 13:22:49;;;;;;;;;;;17.10;99.90;;;;;;5077654;28;19928;-71
2021/07/05 13:25:16;;;;;;;;;;;17.10;99.90;;;;;;5077528;28;19935;-71
2021/07/05 13:27:43;;;;;;;;;;;17.10;99.90;;;;;;5077579;28;19935;-72
2021/07/05 13:30:11;;;;;;;;;;;17.10;99.90;;;;;;5077844;28;19935;-72
2021/07/05 13:32:49;;;;;;;;;;;17.10;99.90;;;;;;5077515;28;19925;-72
2021/07/05 13:35:16;;;;;;;;;;;17.20;99.90;;;;;;5077587;28;19925;-72
2021/07/05 13:37:45;;;;;;;;;;;17.30;99.90;;;;;;5077654;28;19924;-72
2021/07/05 13:40:13;;;;;;;;;;;17.30;99.90;;;;;;5077447;28;19925;-72
2021/07/05 13:42:40;;;;;;;;;;;17.30;99.90;;;;;;5076560;28;19958;-71
2021/07/05 13:45:11;;;;;;;;;;;17.30;99.90;;;;;;5077112;28;20359;-71
2021/07/05 13:47:44;;;;;;;;;;;17.30;99.90;;;;;;5077147;28;19924;-71
2021/07/05 13:50:12;;;;;;;;;;;17.30;99.90;;;;;;5077431;28;20353;-72
2021/07/05 13:52:39;;;;;;;;;;;17.30;99.90;;;;;;5077073;28;19964;-72
2021/07/05 13:55:22;;;;;;;;;;;17.20;99.90;;;;;;5076869;28;19925;-71
2021/07/05 13:57:49;;;;;;;;;;;17.30;99.90;;;;;;5077021;28;19924;-76
2021/07/05 14:00:16;;;;;;;;;;;17.40;99.90;;;;;;5075685;28;19925;-72
2021/07/05 14:02:44;;;;;;;;;;;17.50;99.90;;;;;;5076912;28;19929;-72
2021/07/05 14:05:15;;;;;;;;;;;17.60;99.90;;;;;;5076982;28;19924;-72
2021/07/05 14:07:42;;;;;;;;;;;17.70;99.90;;;;;;5076775;28;19928;-72
2021/07/05 14:10:09;;;;;;;;;;;17.80;99.90;;;;;;5076967;28;19924;-71
2021/07/05 14:12:37;;;;;;;;;;;17.80;99.90;;;;;;5077048;28;19935;-72
2021/07/05 14:15:04;;;;;;;;;;;17.90;99.90;;;;;;5076569;28;19928;-75
2021/07/05 14:17:31;;;;;;;;;;;17.90;99.90;;;;;;5076747;28;19925;-74